createdAt,value
2023-03-06T00:01:18.668Z,3.42
2023-03-06T00:03:46.735Z,3.20
2023-03-06T00:06:14.868Z,2.75
2023-03-06T00:08:42.924Z,4.13
2023-03-06T00:11:14.753Z,4.38
2023-03-06T00:13:42.764Z,2.38
2023-03-06T00:16:12.262Z,4.07
2023-03-06T00:18:40.374Z,3.30
2023-03-06T00:21:09.377Z,4.53
2023-03-06T00:23:37.452Z,2.88
2023-03-06T00:26:08.305Z,4.07
2023-03-06T00:28:36.647Z,2.33
2023-03-06T00:31:05.061Z,3.15
2023-03-06T00:33:34.575Z,3.35
2023-03-06T00:36:05.767Z,3.42
2023-03-06T00:38:35.648Z,3.90
2023-03-06T00:41:08.249Z,3.45
2023-03-06T00:43:36.445Z,2.45
2023-03-06T00:46:05.823Z,2.92
2023-03-06T00:48:35.999Z,4.10
2023-03-06T00:51:04.175Z,2.67
2023-03-06T00:53:32.158Z,4.22
2023-03-06T00:56:00.200Z,2.38
2023-03-06T00:58:28.476Z,3.97
2023-03-06T01:00:57.780Z,3.42
2023-03-06T01:03:25.786Z,4.38
2023-03-06T01:05:55.166Z,3.17
2023-03-06T01:08:23.260Z,3.38
2023-03-06T01:10:51.315Z,2.35
2023-03-06T01:13:19.473Z,3.20
2023-03-06T01:15:47.664Z,3.33
2023-03-06T01:18:16.420Z,4.45
2023-03-06T01:20:44.637Z,4.03
2023-03-06T01:23:13.992Z,3.03
2023-03-06T01:25:41.958Z,4.00
2023-03-06T01:28:10.054Z,2.25
2023-03-06T01:30:38.290Z,3.17
2023-03-06T01:33:06.318Z,4.00
2023-03-06T01:35:35.345Z,5.00
2023-03-06T01:38:03.292Z,3.60
2023-03-06T01:40:34.237Z,3.80
2023-03-06T01:43:10.853Z,3.90
2023-03-06T01:46:16.354Z,3.45
2023-03-06T01:48:45.741Z,3.38
2023-03-06T01:51:13.801Z,3.60
2023-03-06T01:53:43.316Z,3.05
2023-03-06T01:56:15.422Z,3.00
2023-03-06T01:58:45.883Z,3.33
2023-03-06T02:01:15.680Z,4.28
2023-03-06T02:03:46.165Z,3.63
2023-03-06T02:06:19.693Z,3.67
2023-03-06T02:08:49.658Z,3.97
2023-03-06T02:11:21.035Z,3.70
2023-03-06T02:13:51.343Z,3.65
2023-03-06T02:16:22.450Z,2.97
2023-03-06T02:18:51.713Z,3.50
2023-03-06T02:21:24.600Z,2.38
2023-03-06T02:24:03.183Z,3.70
2023-03-06T02:26:35.671Z,4.07
2023-03-06T02:29:03.987Z,2.95
2023-03-06T02:31:35.614Z,2.63
2023-03-06T02:34:07.103Z,3.15
2023-03-06T02:36:39.244Z,2.25
2023-03-06T02:39:07.784Z,2.17
2023-03-06T02:41:37.479Z,4.03
2023-03-06T02:44:05.544Z,4.70
2023-03-06T02:46:33.528Z,3.03
2023-03-06T02:49:01.774Z,3.08
2023-03-06T02:51:29.808Z,2.17
2023-03-06T02:53:57.887Z,3.15
2023-03-06T02:56:25.913Z,3.88
2023-03-06T02:58:55.443Z,3.35
2023-03-06T03:01:23.597Z,3.28
2023-03-06T03:03:51.711Z,2.30
2023-03-06T03:06:22.443Z,2.88
2023-03-06T03:08:51.819Z,3.88
2023-03-06T03:11:20.221Z,3.92
2023-03-06T03:13:48.607Z,3.53
2023-03-06T03:16:23.887Z,2.88
2023-03-06T03:18:52.458Z,3.65
2023-03-06T03:21:23.032Z,2.90
2023-03-06T03:23:51.066Z,2.35
2023-03-06T03:26:21.763Z,3.13
2023-03-06T03:28:57.622Z,3.50
2023-03-06T03:31:27.143Z,4.32
2023-03-06T03:33:55.359Z,4.65
2023-03-06T03:38:52.658Z,1.55
2023-03-06T03:41:20.890Z,2.30
2023-03-06T03:43:49.033Z,3.75
2023-03-06T03:46:17.137Z,2.65
2023-03-06T03:48:46.762Z,4.65
2023-03-06T03:51:16.604Z,3.45
2023-03-06T03:53:49.360Z,4.38
2023-03-06T03:56:21.380Z,3.88
2023-03-06T03:58:57.396Z,3.83
2023-03-06T04:01:28.291Z,3.45
2023-03-06T04:03:57.990Z,2.97
2023-03-06T04:06:26.058Z,3.40
2023-03-06T04:08:54.312Z,3.13
2023-03-06T04:11:23.155Z,3.92
2023-03-06T04:13:51.490Z,2.53
2023-03-06T04:16:20.035Z,3.78
2023-03-06T04:18:49.078Z,3.40
2023-03-06T04:21:19.242Z,1.95
2023-03-06T04:23:47.475Z,3.05
2023-03-06T04:26:16.033Z,3.53
2023-03-06T04:33:41.076Z,3.28
2023-03-06T04:36:25.932Z,2.50
2023-03-06T04:38:56.715Z,2.97
2023-03-06T04:41:25.732Z,3.22
2023-03-06T04:46:21.798Z,2.83
2023-03-06T04:48:49.931Z,2.95
2023-03-06T04:51:19.524Z,3.05
2023-03-06T04:53:47.672Z,2.90
2023-03-06T04:56:15.687Z,3.70
2023-03-06T04:58:44.697Z,3.80
2023-03-06T05:01:13.226Z,1.73
2023-03-06T05:06:09.525Z,2.85
2023-03-06T05:11:07.094Z,1.50
2023-03-06T05:13:35.149Z,3.20
2023-03-06T05:16:04.361Z,1.95
2023-03-06T05:18:32.655Z,3.28
2023-03-06T05:21:00.842Z,4.53
2023-03-06T05:23:29.335Z,3.70
2023-03-06T05:25:59.266Z,4.15
2023-03-06T05:28:28.668Z,4.43
2023-03-06T05:30:56.952Z,3.35
2023-03-06T05:33:26.520Z,3.65
2023-03-06T05:35:54.650Z,2.75
2023-03-06T05:38:23.214Z,4.28
2023-03-06T05:40:51.199Z,3.40
2023-03-06T05:43:20.879Z,3.75
2023-03-06T05:45:50.536Z,3.45
2023-03-06T05:48:18.686Z,3.50
2023-03-06T05:50:46.718Z,3.38
2023-03-06T05:53:14.610Z,3.15
2023-03-06T05:55:42.643Z,1.70
2023-03-06T05:58:10.755Z,3.45
2023-03-06T06:00:40.602Z,4.22
2023-03-06T06:03:08.623Z,4.05
2023-03-06T06:05:40.383Z,5.55
2023-03-06T06:08:08.521Z,3.53
2023-03-06T06:10:36.689Z,4.35
2023-03-06T06:13:04.707Z,3.58
2023-03-06T06:15:32.934Z,2.97
2023-03-06T06:18:02.515Z,4.07
2023-03-06T06:20:30.461Z,4.20
2023-03-06T06:22:58.809Z,3.30
2023-03-06T06:25:26.828Z,3.60
2023-03-06T06:27:56.223Z,3.10
2023-03-06T06:30:25.385Z,2.70
2023-03-06T06:32:53.574Z,3.28
2023-03-06T06:35:23.068Z,2.88
2023-03-06T06:37:51.515Z,3.67
2023-03-06T06:40:20.988Z,3.58
2023-03-06T06:42:48.897Z,2.90
2023-03-06T06:45:17.063Z,3.28
2023-03-06T06:47:46.183Z,4.43
2023-03-06T06:50:14.969Z,3.75
2023-03-06T06:52:44.511Z,3.88
2023-03-06T06:55:13.494Z,3.65
2023-03-06T06:57:42.233Z,3.85
2023-03-06T07:00:14.218Z,3.70
2023-03-06T07:02:42.289Z,2.67
2023-03-06T07:05:11.032Z,3.10
2023-03-06T07:07:39.748Z,3.03
2023-03-06T07:10:14.920Z,4.40
2023-03-06T07:12:43.224Z,3.95
2023-03-06T07:15:13.780Z,2.97
2023-03-06T07:17:41.712Z,3.78
2023-03-06T07:20:12.618Z,4.05
2023-03-06T07:22:50.694Z,2.63
2023-03-06T07:25:21.262Z,2.97
2023-03-06T07:27:54.011Z,3.33
2023-03-06T07:30:23.068Z,3.75
2023-03-06T07:35:21.250Z,2.33
2023-03-06T07:37:49.408Z,4.05
2023-03-06T07:40:18.018Z,3.08
2023-03-06T07:42:48.133Z,3.58
2023-03-06T07:45:20.037Z,2.97
2023-03-06T07:47:48.035Z,4.25
2023-03-06T07:50:16.067Z,2.72
2023-03-06T07:52:44.183Z,3.67
2023-03-06T07:55:13.208Z,2.28
2023-03-06T07:57:41.591Z,4.07
2023-03-06T08:00:14.650Z,2.58
2023-03-06T08:02:44.301Z,2.88
2023-03-06T08:05:16.310Z,3.75
2023-03-06T08:07:45.062Z,3.85
2023-03-06T08:10:16.713Z,3.80
2023-03-06T08:12:45.221Z,3.63
2023-03-06T08:17:42.839Z,3.22
2023-03-06T08:20:12.499Z,3.67
2023-03-06T08:22:41.123Z,1.35
2023-03-06T08:27:37.858Z,3.13
2023-03-06T08:30:06.871Z,2.92
2023-03-06T08:32:38.384Z,2.08
2023-03-06T08:35:07.706Z,3.08
2023-03-06T08:37:35.892Z,2.53
2023-03-06T08:40:05.382Z,2.95
2023-03-06T08:42:33.770Z,3.17
2023-03-06T08:45:02.006Z,4.78
2023-03-06T08:47:30.241Z,4.10
2023-03-06T08:50:00.799Z,4.50
2023-03-06T08:52:29.103Z,3.72
2023-03-06T08:54:58.029Z,4.60
2023-03-06T08:57:26.143Z,3.90
2023-03-06T08:59:54.284Z,4.00
2023-03-06T09:02:22.456Z,2.97
2023-03-06T09:04:50.553Z,3.17
2023-03-06T09:07:19.977Z,4.93
2023-03-06T09:09:48.115Z,2.53
2023-03-06T09:12:16.140Z,3.63
2023-03-06T09:14:44.100Z,1.67
2023-03-06T09:17:12.114Z,2.40
2023-03-06T09:19:40.382Z,3.08
2023-03-06T09:22:08.551Z,2.70
2023-03-06T09:24:38.198Z,3.40
2023-03-06T09:27:06.384Z,4.43
2023-03-06T09:29:34.336Z,2.90
2023-03-06T09:32:02.533Z,3.25
2023-03-06T09:34:30.598Z,1.55
2023-03-06T09:36:58.689Z,3.33
2023-03-06T09:39:27.531Z,1.75
2023-03-06T09:41:58.325Z,3.00
2023-03-06T09:44:29.042Z,3.03
2023-03-06T09:47:10.262Z,2.75
2023-03-06T09:50:01.591Z,2.78
2023-03-06T09:52:38.683Z,4.05
2023-03-06T09:55:13.472Z,3.47
2023-03-06T09:57:52.399Z,2.03
2023-03-06T10:00:24.881Z,2.88
2023-03-06T10:03:00.543Z,4.13
2023-03-06T10:05:36.189Z,2.55
2023-03-06T10:08:07.795Z,1.60
2023-03-06T10:10:43.495Z,5.35
2023-03-06T10:13:20.811Z,2.47
2023-03-06T10:15:50.593Z,2.92
2023-03-06T10:18:19.180Z,3.72
2023-03-06T10:20:50.744Z,4.20
2023-03-06T10:23:33.546Z,3.17
2023-03-06T10:26:03.419Z,2.05
2023-03-06T10:28:42.036Z,3.20
2023-03-06T10:31:15.740Z,1.92
2023-03-06T10:33:54.068Z,5.03
2023-03-06T10:36:27.005Z,1.05
2023-03-06T10:38:56.992Z,3.78
2023-03-06T10:41:28.579Z,2.30
2023-03-06T10:44:21.894Z,3.65
2023-03-06T10:46:52.037Z,2.85
2023-03-06T10:49:33.062Z,2.40
2023-03-06T10:52:05.374Z,3.78
2023-03-06T10:54:35.465Z,3.65
2023-03-06T10:57:21.505Z,2.72
2023-03-06T10:59:56.056Z,1.83
2023-03-06T11:02:30.189Z,4.03
2023-03-06T11:04:59.786Z,2.58
2023-03-06T11:07:29.459Z,1.40
2023-03-06T11:10:04.666Z,2.72
2023-03-06T11:12:34.468Z,1.98
2023-03-06T11:15:18.347Z,2.60
2023-03-06T11:17:55.480Z,2.78
2023-03-06T11:20:27.713Z,3.58
2023-03-06T11:23:00.810Z,1.45
2023-03-06T11:25:33.266Z,2.00
2023-03-06T11:28:04.847Z,2.58
2023-03-06T11:30:40.480Z,2.80
2023-03-06T11:33:21.713Z,1.67
2023-03-06T11:35:58.514Z,1.80
2023-03-06T11:38:33.861Z,3.63
2023-03-06T11:41:07.382Z,2.65
2023-03-06T11:43:45.621Z,2.67
2023-03-06T11:46:21.550Z,2.70
2023-03-06T11:48:54.396Z,2.03
2023-03-06T11:51:25.905Z,2.92
2023-03-06T11:53:55.225Z,2.65
2023-03-06T11:56:37.401Z,2.97
2023-03-06T11:59:24.720Z,2.35
2023-03-06T12:02:03.376Z,1.92
2023-03-06T12:05:01.310Z,2.00
2023-03-06T12:07:34.156Z,2.83
2023-03-06T12:10:14.921Z,2.30
2023-03-06T12:12:58.198Z,2.25
2023-03-06T12:15:40.236Z,1.52
2023-03-06T12:18:27.484Z,2.30
2023-03-06T12:21:04.271Z,2.38
2023-03-06T12:23:55.133Z,1.55
2023-03-06T12:26:42.962Z,1.80
2023-03-06T12:29:28.092Z,1.33
2023-03-06T12:32:08.530Z,2.15
2023-03-06T12:34:58.156Z,1.20
2023-03-06T12:37:40.593Z,2.60
2023-03-06T12:40:27.499Z,2.47
2023-03-06T12:43:11.701Z,1.90
2023-03-06T12:45:40.141Z,1.48
2023-03-06T12:50:44.506Z,2.15
2023-03-06T12:53:17.214Z,1.85
2023-03-06T12:55:47.974Z,2.50
2023-03-06T12:58:35.737Z,2.13
2023-03-06T13:01:07.660Z,2.05
2023-03-06T13:04:00.228Z,2.70
2023-03-06T13:06:50.829Z,2.78
2023-03-06T13:09:23.787Z,1.45
2023-03-06T13:12:21.904Z,2.20
2023-03-06T13:15:01.586Z,1.75
2023-03-06T13:17:35.349Z,1.70
2023-03-06T13:20:30.901Z,2.15
2023-03-06T13:23:20.819Z,1.90
2023-03-06T13:25:51.918Z,2.00
2023-03-06T13:28:44.965Z,2.47
2023-03-06T13:31:26.445Z,2.55
2023-03-06T13:33:58.733Z,1.50
2023-03-06T13:36:29.851Z,2.38
2023-03-06T13:39:07.118Z,2.58
2023-03-06T13:41:58.557Z,2.75
2023-03-06T13:44:47.484Z,2.28
2023-03-06T13:48:05.733Z,2.17
2023-03-06T13:50:36.525Z,1.85
2023-03-06T13:53:42.204Z,1.67
2023-03-06T13:56:26.320Z,1.77
2023-03-06T13:59:19.704Z,2.30
2023-03-06T14:02:01.642Z,2.05
2023-03-06T14:04:38.060Z,1.85
2023-03-06T14:07:26.286Z,2.65
2023-03-06T14:10:04.064Z,2.28
2023-03-06T14:12:35.404Z,3.00
2023-03-06T14:15:16.801Z,1.48
2023-03-06T14:17:55.319Z,1.38
2023-03-06T14:20:34.029Z,1.65
2023-03-06T14:23:21.066Z,2.58
2023-03-06T14:25:55.869Z,2.20
2023-03-06T14:30:56.223Z,1.42
2023-03-06T14:33:44.947Z,2.50
2023-03-06T14:36:16.940Z,1.50
2023-03-06T14:38:47.586Z,2.13
2023-03-06T14:41:24.536Z,1.75
2023-03-06T14:43:53.066Z,1.73
2023-03-06T14:48:51.503Z,1.48
2023-03-06T14:51:21.778Z,2.15
2023-03-06T14:53:51.485Z,1.98
2023-03-06T14:56:21.297Z,1.65
2023-03-06T14:58:56.736Z,1.75
2023-03-06T15:01:32.451Z,2.15
2023-03-06T15:04:02.100Z,2.90
2023-03-06T15:06:37.731Z,1.63
2023-03-06T15:09:10.222Z,1.38
2023-03-06T15:11:55.643Z,2.00
2023-03-06T15:14:30.592Z,2.00
2023-03-06T15:19:44.455Z,1.35
2023-03-06T15:22:27.055Z,1.27
2023-03-06T15:25:07.594Z,1.63
2023-03-06T15:27:35.807Z,1.50
2023-03-06T15:30:22.237Z,1.10
2023-03-06T15:32:52.230Z,1.40
2023-03-06T15:35:29.265Z,0.70
2023-03-06T15:37:58.370Z,0.50
2023-03-06T15:40:28.453Z,0.95
2023-03-06T15:42:57.034Z,0.60
2023-03-06T15:45:27.007Z,1.63
2023-03-06T15:47:57.036Z,0.90
2023-03-06T15:50:27.226Z,0.82
2023-03-06T15:52:55.247Z,1.15
2023-03-06T15:55:26.011Z,0.77
2023-03-06T15:57:56.598Z,1.02
2023-03-06T16:00:28.277Z,0.90
2023-03-06T16:02:59.421Z,0.90
2023-03-06T16:05:28.758Z,0.60
2023-03-06T16:07:57.152Z,1.15
2023-03-06T16:10:28.446Z,0.60
2023-03-06T16:13:02.530Z,0.70
2023-03-06T16:15:33.804Z,0.40
2023-03-06T16:18:03.310Z,0.75
2023-03-06T16:20:32.739Z,0.60
2023-03-06T16:23:01.180Z,0.77
2023-03-06T16:27:59.711Z,0.68
2023-03-06T16:30:30.250Z,1.73
2023-03-06T16:32:59.111Z,0.82
2023-03-06T16:35:28.994Z,1.20
2023-03-06T16:37:58.878Z,0.63
2023-03-06T16:40:29.796Z,0.88
2023-03-06T16:42:58.058Z,1.08
2023-03-06T16:45:26.625Z,0.60
2023-03-06T16:47:54.683Z,1.27
2023-03-06T16:50:25.680Z,0.75
2023-03-06T16:52:56.639Z,0.93
2023-03-06T16:55:26.454Z,1.30
2023-03-06T16:57:54.905Z,1.48
2023-03-06T17:02:53.673Z,0.60
2023-03-06T17:05:22.208Z,2.03
2023-03-06T17:10:22.660Z,0.65
2023-03-06T17:12:50.932Z,1.15
2023-03-06T17:15:19.165Z,1.65
2023-03-06T17:22:43.322Z,1.40
2023-03-06T17:25:12.548Z,1.58
2023-03-06T17:27:42.046Z,0.65
2023-03-06T17:30:11.339Z,1.02
2023-03-06T17:32:41.137Z,1.33
2023-03-06T17:35:10.268Z,1.58
2023-03-06T17:37:38.661Z,1.40
2023-03-06T17:42:36.821Z,0.47
2023-03-06T17:45:09.361Z,0.93
2023-03-06T17:47:37.524Z,0.80
2023-03-06T17:50:06.177Z,1.23
2023-03-06T17:52:34.941Z,0.95
2023-03-06T17:55:03.060Z,1.05
2023-03-06T17:57:31.158Z,0.40
2023-03-06T17:59:59.249Z,0.57
2023-03-06T18:02:28.735Z,1.73
2023-03-06T18:04:58.159Z,0.88
2023-03-06T18:07:26.714Z,0.52
2023-03-06T18:14:50.839Z,0.30
2023-03-06T18:17:19.181Z,0.35
2023-03-06T18:19:48.481Z,0.40
2023-03-06T18:22:16.599Z,0.98
2023-03-06T18:24:44.717Z,0.73
2023-03-06T18:27:12.983Z,0.20
2023-03-06T18:29:41.196Z,0.47
2023-03-06T18:32:10.737Z,1.02
2023-03-06T18:34:38.873Z,1.05
2023-03-06T18:37:08.377Z,0.17
2023-03-06T18:39:36.531Z,0.30
2023-03-06T18:42:04.972Z,0.68
2023-03-06T18:44:32.990Z,0.30
2023-03-06T18:47:00.962Z,0.60
2023-03-06T18:49:29.147Z,0.82
2023-03-06T18:51:57.289Z,0.38
2023-03-06T18:54:28.619Z,0.63
2023-03-06T18:56:56.725Z,0.10
2023-03-06T18:59:25.878Z,1.23
2023-03-06T19:01:57.623Z,0.10
2023-03-06T19:04:25.824Z,0.25
2023-03-06T19:06:54.775Z,0.20
2023-03-06T19:09:23.257Z,0.80
2023-03-06T19:11:54.825Z,0.60
2023-03-06T19:14:23.216Z,0.47
2023-03-06T19:16:51.272Z,0.93
2023-03-06T19:19:19.411Z,0.65
2023-03-06T19:21:47.698Z,0.55
2023-03-06T19:24:15.840Z,0.55
2023-03-06T19:26:43.833Z,0.30
2023-03-06T19:29:13.374Z,0.35
2023-03-06T19:31:42.347Z,0.40
2023-03-06T19:34:10.677Z,0.28
2023-03-06T19:36:40.824Z,0.43
2023-03-06T19:39:09.542Z,0.32
2023-03-06T19:44:06.252Z,0.50
2023-03-06T19:46:36.251Z,1.85
2023-03-06T19:49:09.644Z,0.08
2023-03-06T19:51:37.722Z,0.65
2023-03-06T19:54:05.775Z,0.00
2023-03-06T19:56:33.842Z,0.10
2023-03-06T19:59:01.958Z,0.20
2023-03-06T20:01:30.571Z,0.55
2023-03-06T20:04:00.852Z,0.20
2023-03-06T20:06:31.150Z,2.33
2023-03-06T20:08:59.492Z,0.50
2023-03-06T20:11:30.499Z,0.57
2023-03-06T20:13:59.516Z,0.35
2023-03-06T20:16:29.078Z,0.55
2023-03-06T20:18:58.999Z,0.38
2023-03-06T20:21:30.454Z,0.30
2023-03-06T20:23:59.116Z,0.77
2023-03-06T20:26:28.823Z,0.45
2023-03-06T20:28:57.850Z,0.10
2023-03-06T20:31:28.170Z,0.60
2023-03-06T20:33:59.143Z,0.43
2023-03-06T20:36:30.258Z,0.52
2023-03-06T20:39:01.542Z,0.20
2023-03-06T20:41:31.392Z,0.80
2023-03-06T20:43:59.864Z,0.38
2023-03-06T20:48:58.047Z,0.20
2023-03-06T20:51:29.138Z,0.47
2023-03-06T20:53:58.079Z,0.70
2023-03-06T20:56:29.240Z,0.40
2023-03-06T20:58:58.491Z,0.43
2023-03-06T21:01:27.851Z,0.85
2023-03-06T21:03:57.252Z,0.93
2023-03-06T21:06:25.984Z,0.17
2023-03-06T21:08:55.872Z,0.43
2023-03-06T21:11:23.924Z,0.38
2023-03-06T21:13:52.981Z,0.70
2023-03-06T21:16:23.728Z,0.25
2023-03-06T21:18:52.862Z,0.60
2023-03-06T21:21:23.161Z,1.17
2023-03-06T21:23:52.234Z,0.10
2023-03-06T21:26:23.401Z,0.32
2023-03-06T21:28:51.752Z,0.20
2023-03-06T21:31:21.710Z,0.50
2023-03-06T21:33:50.614Z,0.40
2023-03-06T21:36:19.670Z,0.13
2023-03-06T21:38:48.641Z,0.60
2023-03-06T21:41:18.415Z,0.50
2023-03-06T21:43:48.372Z,0.20
2023-03-06T21:46:16.454Z,0.00
2023-03-06T21:48:44.559Z,0.47
2023-03-06T21:51:15.709Z,0.70
2023-03-06T21:53:45.225Z,0.08
2023-03-06T21:56:14.472Z,0.65
2023-03-06T21:58:42.885Z,0.55
2023-03-06T22:01:13.693Z,0.73
2023-03-06T22:03:41.800Z,0.15
2023-03-06T22:06:11.376Z,1.30
2023-03-06T22:08:39.543Z,0.25
2023-03-06T22:11:09.506Z,0.45
2023-03-06T22:13:37.707Z,0.28
2023-03-06T22:16:06.644Z,0.45
2023-03-06T22:18:36.988Z,0.38
2023-03-06T22:21:08.478Z,0.15
2023-03-06T22:23:36.561Z,0.30
2023-03-06T22:26:05.549Z,0.28
2023-03-06T22:28:34.129Z,0.43
2023-03-06T22:31:08.432Z,0.35
2023-03-06T22:33:38.656Z,0.40
2023-03-06T22:36:09.220Z,0.40
2023-03-06T22:38:39.046Z,0.13
2023-03-06T22:41:07.698Z,0.20
2023-03-06T22:43:36.191Z,0.63
2023-03-06T22:48:33.129Z,0.40
2023-03-06T22:51:07.753Z,0.30
2023-03-06T22:53:36.340Z,0.70
2023-03-06T22:56:07.729Z,0.45
2023-03-06T22:58:37.987Z,0.60
2023-03-06T23:01:08.587Z,0.52
2023-03-06T23:03:37.812Z,0.43
2023-03-06T23:06:12.621Z,0.20
2023-03-06T23:11:10.952Z,0.03
2023-03-06T23:13:58.411Z,0.15
2023-03-06T23:16:45.423Z,0.35
2023-03-06T23:19:32.443Z,0.30
2023-03-06T23:22:20.596Z,0.20
2023-03-06T23:25:07.961Z,0.28
2023-03-06T23:27:36.980Z,3.90
2023-03-06T23:30:05.561Z,0.30
2023-03-06T23:35:02.310Z,0.32
2023-03-06T23:37:31.913Z,0.47
2023-03-06T23:40:00.015Z,0.70
2023-03-06T23:42:28.136Z,0.45
2023-03-06T23:44:56.211Z,0.20
2023-03-06T23:47:24.280Z,0.00
2023-03-06T23:49:52.369Z,0.70
2023-03-06T23:52:20.402Z,0.50
2023-03-06T23:54:50.963Z,0.60
2023-03-06T23:57:18.965Z,0.22
2023-03-06T23:59:47.104Z,0.73
